Gunnedah, Australia
Current Conditions -  °F | °C
As of 1:30 PM on Monday 24 Nov 2014 (Local Time) from YSTW Reporting Station
Scattered Clouds Scattered Clouds  
Wind Chill: 99°   Ceiling: Unl
Heat Index: 99°   Visibility: 6mi
Dew Point: 57°   Wind: 21mph
Humidity: 25%   Direction: 350°N
Pressure: 29.85"   Gusts: NA
Location:  30.98°S, 150.26°E
Report Text: YSTW 240230Z AUTO 35018KT 9999 // SCT087 37/14 Q1011
Loading
Personal Weather Stations






























Interactive Weather Map New forecast layout! Learn more

10-Day Weather Forecast

Advertisements
Track Severe Weather on mobile